Time,TemperatureF,DewpointF,PressureIn,WindDirection,WindDirectionDegrees,WindSpeedMPH,WindSpeedGustMPH,Humidity,HourlyPrecipIn,Conditions,Clouds,dailyrainin,SoftwareType,DateUTC
2013-01-14 00:07:00,51.1,50.3,29.93,West,270,1.7,-999.0,97,-99.99,,,0.00,Acu-Link.com,2013-01-14 05:07:00,
2013-01-14 00:23:00,51.4,50.0,29.93,WSW,247,2.2,-999.0,95,-99.99,,,0.00,Acu-Link.com,2013-01-14 05:23:00,
2013-01-14 00:38:00,51.6,50.2,29.92,WSW,247,1.7,-999.0,95,-99.99,,,0.00,Acu-Link.com,2013-01-14 05:38:00,
2013-01-14 00:53:00,52.2,50.5,29.93,West,270,3.2,-999.0,94,-99.99,,,0.00,Acu-Link.com,2013-01-14 05:53:00,
2013-01-14 01:09:00,51.8,49.8,29.92,NE,45,1.7,-999.0,93,-99.99,,,0.00,Acu-Link.com,2013-01-14 06:09:00,
2013-01-14 01:24:00,52.9,50.9,29.92,South,180,5.8,-999.0,93,-99.99,,,0.00,Acu-Link.com,2013-01-14 06:24:00,
2013-01-14 01:39:00,53.2,51.2,29.93,SSW,202,2.7,-999.0,93,-99.99,,,0.00,Acu-Link.com,2013-01-14 06:39:00,
2013-01-14 01:54:00,54.0,51.7,29.92,SSW,202,3.7,-999.0,92,-99.99,,,0.00,Acu-Link.com,2013-01-14 06:54:00,
2013-01-14 02:10:00,53.8,51.5,29.93,ESE,112,3.7,-999.0,92,-99.99,,,0.00,Acu-Link.com,2013-01-14 07:10:00,
2013-01-14 02:25:00,53.6,51.6,29.93,SSW,202,4.7,-999.0,93,-99.99,,,0.00,Acu-Link.com,2013-01-14 07:25:00,
2013-01-14 02:40:00,53.4,51.7,29.93,ENE,67,4.2,-999.0,94,-99.99,,,0.00,Acu-Link.com,2013-01-14 07:40:00,
2013-01-14 02:56:00,53.8,52.1,29.93,South,180,3.2,-999.0,94,-99.99,,,0.00,Acu-Link.com,2013-01-14 07:56:00,
2013-01-14 03:11:00,54.1,52.4,29.91,SSE,157,1.7,-999.0,94,-99.99,,,0.00,Acu-Link.com,2013-01-14 08:11:00,
2013-01-14 03:26:00,54.3,52.6,29.92,South,180,1.7,-999.0,94,-99.99,,,0.00,Acu-Link.com,2013-01-14 08:26:00,
2013-01-14 03:42:00,54.1,52.4,29.92,South,180,3.2,-999.0,94,-99.99,,,0.00,Acu-Link.com,2013-01-14 08:42:00,
2013-01-14 03:57:00,54.0,52.3,29.92,West,270,2.7,-999.0,94,-99.99,,,0.00,Acu-Link.com,2013-01-14 08:57:00,
2013-01-14 04:13:00,53.6,51.6,29.91,West,270,1.7,-999.0,93,-99.99,,,0.00,Acu-Link.com,2013-01-14 09:13:00,
2013-01-14 04:28:00,53.2,51.8,29.92,West,270,1.7,-999.0,95,-99.99,,,0.00,Acu-Link.com,2013-01-14 09:28:00,
2013-01-14 04:43:00,52.2,51.4,29.92,NW,315,1.7,-999.0,97,-99.99,,,0.00,Acu-Link.com,2013-01-14 09:43:00,
2013-01-14 04:59:00,53.2,52.1,29.91,SW,225,2.7,-999.0,96,-99.99,,,0.00,Acu-Link.com,2013-01-14 09:59:00,
2013-01-14 05:14:00,52.5,52.0,29.90,NW,315,2.7,-999.0,98,-99.99,,,0.00,Acu-Link.com,2013-01-14 10:14:00,
2013-01-14 05:29:00,52.3,51.8,29.90,West,270,2.2,-999.0,98,-99.99,,,0.00,Acu-Link.com,2013-01-14 10:29:00,
2013-01-14 05:45:00,53.1,52.8,29.88,SE,135,1.7,-999.0,99,-99.99,,,0.00,Acu-Link.com,2013-01-14 10:45:00,
2013-01-14 06:00:00,54.0,52.6,29.86,SE,135,1.1,-999.0,95,-99.99,,,0.00,Acu-Link.com,2013-01-14 11:00:00,
2013-01-14 06:15:00,53.8,52.4,29.84,ESE,112,7.8,-999.0,95,-99.99,,,0.00,Acu-Link.com,2013-01-14 11:15:00,
2013-01-14 06:30:00,53.8,52.4,29.84,ESE,112,6.8,-999.0,95,-99.99,,,0.00,Acu-Link.com,2013-01-14 11:30:00,
2013-01-14 06:46:00,52.3,51.5,29.94,WNW,292,7.3,-999.0,97,-99.99,,,0.00,Acu-Link.com,2013-01-14 11:46:00,
2013-01-14 07:01:00,51.6,51.1,29.93,North,0,1.1,-999.0,98,-99.99,,,0.00,Acu-Link.com,2013-01-14 12:01:00,
2013-01-14 07:16:00,51.8,51.3,29.95,WSW,247,2.7,-999.0,98,-99.99,,,0.00,Acu-Link.com,2013-01-14 12:16:00,
2013-01-14 07:32:00,52.0,51.5,29.96,WNW,292,4.7,-999.0,98,-99.99,,,0.00,Acu-Link.com,2013-01-14 12:32:00,
2013-01-14 07:47:00,51.8,51.3,29.97,West,270,3.7,-999.0,98,-99.99,,,0.00,Acu-Link.com,2013-01-14 12:47:00,
2013-01-14 08:02:00,52.0,51.5,29.96,NNW,337,2.7,-999.0,98,-99.99,,,0.00,Acu-Link.com,2013-01-14 13:02:00,
2013-01-14 08:18:00,52.7,51.9,29.96,NW,315,3.7,-999.0,97,-99.99,,,0.00,Acu-Link.com,2013-01-14 13:18:00,
2013-01-14 08:33:00,52.7,51.9,29.96,NW,315,1.7,-999.0,97,-99.99,,,0.00,Acu-Link.com,2013-01-14 13:33:00,
2013-01-14 08:48:00,53.4,51.7,29.98,WSW,247,4.2,-999.0,94,-99.99,,,0.00,Acu-Link.com,2013-01-14 13:48:00,
2013-01-14 09:04:00,53.4,51.7,29.98,SSW,202,3.7,-999.0,94,-99.99,,,0.00,Acu-Link.com,2013-01-14 14:04:00,
2013-01-14 09:19:00,54.1,52.1,29.98,West,270,2.7,-999.0,93,-99.99,,,0.00,Acu-Link.com,2013-01-14 14:19:00,
2013-01-14 09:34:00,54.5,52.2,29.99,West,270,4.2,-999.0,92,-99.99,,,0.00,Acu-Link.com,2013-01-14 14:34:00,
2013-01-14 09:50:00,54.9,52.3,29.99,SW,225,4.7,-999.0,91,-99.99,,,0.00,Acu-Link.com,2013-01-14 14:50:00,
2013-01-14 10:05:00,56.1,52.6,30.00,West,270,4.2,-999.0,88,-99.99,,,0.00,Acu-Link.com,2013-01-14 15:05:00,
2013-01-14 10:20:00,56.1,52.3,30.01,WNW,292,4.7,-999.0,87,-99.99,,,0.00,Acu-Link.com,2013-01-14 15:20:00,
2013-01-14 10:35:00,56.5,52.4,30.01,West,270,3.2,-999.0,86,-99.99,,,0.00,Acu-Link.com,2013-01-14 15:35:00,
2013-01-14 10:51:00,57.4,52.6,30.01,NNW,337,4.2,-999.0,84,-99.99,,,0.00,Acu-Link.com,2013-01-14 15:51:00,
2013-01-14 11:06:00,57.9,52.1,30.00,West,270,3.7,-999.0,81,-99.99,,,0.00,Acu-Link.com,2013-01-14 16:06:00,
2013-01-14 11:21:00,57.7,51.9,30.01,WSW,247,3.7,-999.0,81,-99.99,,,0.00,Acu-Link.com,2013-01-14 16:21:00,
2013-01-14 11:37:00,57.4,51.6,30.02,NNW,337,3.7,-999.0,81,-99.99,,,0.00,Acu-Link.com,2013-01-14 16:37:00,
2013-01-14 11:52:00,57.2,50.4,30.01,WNW,292,8.3,-999.0,78,-99.99,,,0.00,Acu-Link.com,2013-01-14 16:52:00,
2013-01-14 12:07:00,57.6,49.4,30.01,East,90,4.2,-999.0,74,-99.99,,,0.00,Acu-Link.com,2013-01-14 17:07:00,
2013-01-14 12:22:00,57.0,44.9,30.01,WNW,292,8.3,-999.0,64,-99.99,,,0.00,Acu-Link.com,2013-01-14 17:22:00,
2013-01-14 12:38:00,56.8,45.2,30.02,West,270,5.8,-999.0,65,-99.99,,,0.00,Acu-Link.com,2013-01-14 17:38:00,
2013-01-14 12:53:00,56.5,44.9,30.00,NE,45,4.2,-999.0,65,-99.99,,,0.00,Acu-Link.com,2013-01-14 17:53:00,
2013-01-14 13:08:00,56.1,44.5,30.01,NNE,22,7.3,-999.0,65,-99.99,,,0.00,Acu-Link.com,2013-01-14 18:08:00,
2013-01-14 13:23:00,55.9,43.9,30.01,West,270,6.3,-999.0,64,-99.99,,,0.00,Acu-Link.com,2013-01-14 18:23:00,
2013-01-14 13:39:00,56.8,43.9,30.02,NNW,337,6.8,-999.0,62,-99.99,,,0.00,Acu-Link.com,2013-01-14 18:39:00,
2013-01-14 13:54:00,56.7,43.4,30.03,NNE,22,4.7,-999.0,61,-99.99,,,0.00,Acu-Link.com,2013-01-14 18:54:00,
2013-01-14 14:09:00,56.5,43.6,30.03,WNW,292,7.3,-999.0,62,-99.99,,,0.00,Acu-Link.com,2013-01-14 19:09:00,
2013-01-14 14:25:00,56.5,43.2,30.04,NW,315,3.7,-999.0,61,-99.99,,,0.00,Acu-Link.com,2013-01-14 19:25:00,
2013-01-14 14:40:00,55.9,42.6,30.07,NW,315,6.3,-999.0,61,-99.99,,,0.00,Acu-Link.com,2013-01-14 19:40:00,
2013-01-14 14:55:00,55.8,42.6,30.06,West,270,5.8,-999.0,61,-99.99,,,0.00,Acu-Link.com,2013-01-14 19:55:00,
2013-01-14 15:11:00,55.2,40.2,30.06,WNW,292,11.4,-999.0,57,-99.99,,,0.00,Acu-Link.com,2013-01-14 20:11:00,
2013-01-14 15:26:00,54.7,38.9,30.07,WNW,292,5.8,-999.0,55,-99.99,,,0.00,Acu-Link.com,2013-01-14 20:26:00,
2013-01-14 15:41:00,54.9,37.6,30.07,NNE,22,7.8,-999.0,52,-99.99,,,0.00,Acu-Link.com,2013-01-14 20:41:00,
2013-01-14 15:57:00,54.5,36.7,30.08,West,270,6.3,-999.0,51,-99.99,,,0.00,Acu-Link.com,2013-01-14 20:57:00,
2013-01-14 16:12:00,54.5,36.7,30.08,NW,315,5.8,-999.0,51,-99.99,,,0.00,Acu-Link.com,2013-01-14 21:12:00,
2013-01-14 16:27:00,54.0,36.8,30.08,West,270,8.9,-999.0,52,-99.99,,,0.00,Acu-Link.com,2013-01-14 21:27:00,
2013-01-14 16:43:00,53.6,35.9,30.08,NW,315,6.8,-999.0,51,-99.99,,,0.00,Acu-Link.com,2013-01-14 21:43:00,
2013-01-14 16:58:00,53.2,36.0,30.08,SSW,202,2.7,-999.0,52,-99.99,,,0.00,Acu-Link.com,2013-01-14 21:58:00,
2013-01-14 17:13:00,52.7,36.1,30.09,West,270,6.8,-999.0,53,-99.99,,,0.00,Acu-Link.com,2013-01-14 22:13:00,
2013-01-14 17:29:00,52.7,36.1,30.09,North,0,7.8,-999.0,53,-99.99,,,0.00,Acu-Link.com,2013-01-14 22:29:00,
2013-01-14 17:44:00,52.5,36.3,30.09,SSW,202,2.2,-999.0,54,-99.99,,,0.00,Acu-Link.com,2013-01-14 22:44:00,
2013-01-14 17:59:00,52.0,35.9,30.09,NNE,22,4.7,-999.0,54,-99.99,,,0.00,Acu-Link.com,2013-01-14 22:59:00,
2013-01-14 18:14:00,51.8,35.7,30.11,NNW,337,3.2,-999.0,54,-99.99,,,0.00,Acu-Link.com,2013-01-14 23:14:00,
2013-01-14 18:30:00,51.6,34.6,30.10,North,0,3.7,-999.0,52,-99.99,,,0.00,Acu-Link.com,2013-01-14 23:30:00,
2013-01-14 18:45:00,51.6,34.1,30.10,WNW,292,2.2,-999.0,51,-99.99,,,0.00,Acu-Link.com,2013-01-14 23:45:00,
2013-01-14 19:00:00,51.4,33.9,30.12,NW,315,7.3,-999.0,51,-99.99,,,0.00,Acu-Link.com,2013-01-15 00:00:00,
2013-01-14 19:15:00,50.9,33.9,30.13,West,270,1.7,-999.0,52,-99.99,,,0.00,Acu-Link.com,2013-01-15 00:15:00,
2013-01-14 19:31:00,50.5,33.5,30.15,West,270,5.8,-999.0,52,-99.99,,,0.00,Acu-Link.com,2013-01-15 00:31:00,
2013-01-14 19:46:00,50.4,33.0,30.18,WNW,292,6.8,-999.0,51,-99.99,,,0.00,Acu-Link.com,2013-01-15 00:46:00,
2013-01-14 20:01:00,49.3,31.5,30.18,West,270,4.7,-999.0,50,-99.99,,,0.00,Acu-Link.com,2013-01-15 01:01:00,
2013-01-14 20:17:00,49.5,30.6,30.17,WNW,292,6.8,-999.0,48,-99.99,,,0.00,Acu-Link.com,2013-01-15 01:17:00,
2013-01-14 20:32:00,48.7,30.4,30.17,NE,45,7.8,-999.0,49,-99.99,,,0.00,Acu-Link.com,2013-01-15 01:32:00,
2013-01-14 20:47:00,48.2,29.9,30.16,West,270,8.9,-999.0,49,-99.99,,,0.00,Acu-Link.com,2013-01-15 01:47:00,
2013-01-14 21:03:00,48.0,30.3,30.16,West,270,3.2,-999.0,50,-99.99,,,0.00,Acu-Link.com,2013-01-15 02:03:00,
2013-01-14 21:18:00,46.8,34.5,30.17,NNW,337,7.3,-999.0,62,-99.99,,,0.00,Acu-Link.com,2013-01-15 02:18:00,
2013-01-14 21:33:00,46.2,34.3,30.17,NNW,337,6.8,-999.0,63,-99.99,,,0.00,Acu-Link.com,2013-01-15 02:33:00,
2013-01-14 21:48:00,45.3,33.5,30.19,NNE,22,10.4,-999.0,63,-99.99,,,0.00,Acu-Link.com,2013-01-15 02:48:00,
2013-01-14 22:04:00,43.7,34.2,30.19,NW,315,5.8,-999.0,69,-99.99,,,0.00,Acu-Link.com,2013-01-15 03:04:00,
2013-01-14 22:19:00,42.6,35.9,30.20,WNW,292,11.4,-999.0,77,-99.99,,,0.00,Acu-Link.com,2013-01-15 03:19:00,
2013-01-14 22:34:00,41.5,36.4,30.20,NE,45,5.8,-999.0,82,-99.99,,,0.03,Acu-Link.com,2013-01-15 03:34:00,
2013-01-14 22:49:00,40.6,36.2,30.19,NNW,337,5.3,-999.0,84,-99.99,,,0.05,Acu-Link.com,2013-01-15 03:49:00,
2013-01-14 23:04:00,40.3,35.9,30.20,NNE,22,6.8,-999.0,84,-99.99,,,0.06,Acu-Link.com,2013-01-15 04:04:00,
2013-01-14 23:20:00,40.3,35.6,30.20,NW,315,6.3,-999.0,83,-99.99,,,0.07,Acu-Link.com,2013-01-15 04:20:00,
2013-01-14 23:35:00,40.3,35.9,30.21,NE,45,5.3,-999.0,84,-99.99,,,0.07,Acu-Link.com,2013-01-15 04:35:00,
2013-01-14 23:50:00,39.7,34.4,30.21,North,0,8.3,-999.0,81,-99.99,,,0.07,Acu-Link.com,2013-01-15 04:50:00,